createdAt,value
2018-08-18T00:02:21.414Z,3.13
2018-08-18T00:04:53.382Z,2.90
2018-08-18T00:07:25.262Z,2.87
2018-08-18T00:09:57.042Z,3.20
2018-08-18T00:12:29.933Z,3.30
2018-08-18T00:15:01.743Z,3.03
2018-08-18T00:17:33.627Z,2.70
2018-08-18T00:20:06.348Z,3.40
2018-08-18T00:22:38.280Z,3.17
2018-08-18T00:25:10.131Z,2.83
2018-08-18T00:27:42.063Z,3.17
2018-08-18T00:30:18.586Z,3.90
2018-08-18T00:32:50.532Z,3.80
2018-08-18T00:35:22.324Z,4.20
2018-08-18T00:37:54.232Z,3.70
2018-08-18T00:40:26.010Z,3.60
2018-08-18T00:42:57.778Z,3.40
2018-08-18T00:45:29.702Z,3.00
2018-08-18T00:48:01.372Z,3.43
2018-08-18T00:50:41.260Z,3.80
2018-08-18T00:53:14.800Z,3.43
2018-08-18T00:55:46.628Z,3.63
2018-08-18T00:58:32.817Z,3.30
2018-08-18T01:01:05.078Z,3.83
2018-08-18T01:03:44.656Z,3.63
2018-08-18T01:06:22.333Z,3.50
2018-08-18T01:08:56.222Z,3.53
2018-08-18T01:11:28.321Z,3.40
2018-08-18T01:14:08.588Z,3.43
2018-08-18T01:16:49.317Z,3.40
2018-08-18T01:19:22.368Z,3.27
2018-08-18T01:21:59.009Z,3.43
2018-08-18T01:24:30.810Z,3.70
2018-08-18T01:27:04.583Z,3.07
2018-08-18T01:29:36.390Z,3.80
2018-08-18T01:32:08.160Z,3.30
2018-08-18T01:34:39.805Z,3.00
2018-08-18T01:37:16.414Z,3.33
2018-08-18T01:39:49.040Z,2.80
2018-08-18T01:42:20.809Z,4.10
2018-08-18T01:44:55.691Z,3.60
2018-08-18T01:47:27.405Z,3.20
2018-08-18T01:50:05.913Z,3.07
2018-08-18T01:52:39.611Z,3.70
2018-08-18T01:55:11.401Z,3.80
2018-08-18T01:57:43.071Z,3.67
2018-08-18T02:00:27.908Z,3.43
2018-08-18T02:02:59.805Z,3.50
2018-08-18T02:05:31.552Z,3.20
2018-08-18T02:08:03.203Z,3.70
2018-08-18T02:10:35.134Z,3.30
2018-08-18T02:13:07.209Z,3.70
2018-08-18T02:15:38.990Z,3.20
2018-08-18T02:18:10.719Z,3.73
2018-08-18T02:20:42.597Z,3.50
2018-08-18T02:23:15.096Z,3.97
2018-08-18T02:25:46.845Z,3.60
2018-08-18T02:28:34.225Z,3.73
2018-08-18T02:31:06.038Z,4.27
2018-08-18T02:33:37.678Z,3.63
2018-08-18T02:36:09.415Z,3.60
2018-08-18T02:38:45.117Z,3.70
2018-08-18T02:41:16.848Z,4.20
2018-08-18T02:43:48.722Z,4.37
2018-08-18T02:46:39.375Z,4.07
2018-08-18T02:49:11.182Z,4.37
2018-08-18T02:51:42.826Z,4.13
2018-08-18T02:54:14.565Z,4.27
2018-08-18T02:56:46.475Z,3.60
2018-08-18T02:59:18.086Z,3.67
2018-08-18T03:01:49.756Z,3.30
2018-08-18T03:04:21.588Z,3.50
2018-08-18T03:06:53.398Z,3.87
2018-08-18T03:09:25.049Z,3.63
2018-08-18T03:11:56.682Z,3.43
2018-08-18T03:14:28.349Z,4.70
2018-08-18T03:17:00.300Z,4.23
2018-08-18T03:19:32.050Z,3.30
2018-08-18T03:22:03.776Z,3.87
2018-08-18T03:24:35.680Z,3.90
2018-08-18T03:27:07.425Z,3.53
2018-08-18T03:29:44.150Z,4.23
2018-08-18T03:32:15.885Z,3.50
2018-08-18T03:34:47.641Z,3.83
2018-08-18T03:37:30.954Z,4.17
2018-08-18T03:40:02.833Z,3.97
2018-08-18T03:42:42.048Z,3.90
2018-08-18T03:45:13.714Z,3.53
2018-08-18T03:47:45.376Z,3.67
2018-08-18T03:50:17.221Z,3.50
2018-08-18T03:52:48.877Z,4.03
2018-08-18T03:55:25.122Z,3.80
2018-08-18T03:57:57.043Z,3.27
2018-08-18T04:00:28.687Z,3.80
2018-08-18T04:03:00.412Z,3.37
2018-08-18T04:05:32.111Z,3.40
2018-08-18T04:08:03.762Z,4.00
2018-08-18T04:10:35.488Z,3.50
2018-08-18T04:13:07.319Z,4.20
2018-08-18T04:15:39.105Z,3.90
2018-08-18T04:18:15.014Z,3.43
2018-08-18T04:20:46.715Z,3.30
2018-08-18T04:23:18.377Z,3.77
2018-08-18T04:25:50.061Z,3.20
2018-08-18T04:28:21.825Z,4.23
2018-08-18T04:30:53.549Z,3.20
2018-08-18T04:33:25.229Z,3.40
2018-08-18T04:36:01.067Z,3.90
2018-08-18T04:38:32.740Z,3.67
2018-08-18T04:41:04.530Z,3.37
2018-08-18T04:43:36.155Z,3.67
2018-08-18T04:46:08.032Z,3.53
2018-08-18T04:48:39.819Z,3.00
2018-08-18T04:51:11.521Z,3.80
2018-08-18T04:53:43.405Z,3.57
2018-08-18T04:56:15.238Z,4.10
2018-08-18T04:58:46.910Z,4.87
2018-08-18T05:01:18.683Z,3.70
2018-08-18T05:04:03.727Z,4.23
2018-08-18T05:06:36.280Z,4.20
2018-08-18T05:09:12.441Z,3.67
2018-08-18T05:11:44.455Z,3.60
2018-08-18T05:14:16.180Z,3.43
2018-08-18T05:16:47.999Z,3.87
2018-08-18T05:19:19.865Z,3.07
2018-08-18T05:21:51.709Z,3.47
2018-08-18T05:24:27.109Z,3.90
2018-08-18T05:26:59.644Z,4.63
2018-08-18T05:29:31.377Z,4.50
2018-08-18T05:32:03.091Z,3.97
2018-08-18T05:34:34.910Z,3.73
2018-08-18T05:37:06.779Z,3.23
2018-08-18T05:39:38.509Z,4.30
2018-08-18T05:42:10.450Z,3.70
2018-08-18T05:44:42.347Z,4.33
2018-08-18T05:47:14.023Z,4.40
2018-08-18T05:49:45.729Z,4.33
2018-08-18T05:52:17.513Z,3.70
2018-08-18T05:54:49.173Z,3.60
2018-08-18T05:57:20.952Z,3.83
2018-08-18T05:59:52.815Z,3.40
2018-08-18T06:02:24.469Z,4.27
2018-08-18T06:04:56.274Z,3.67
2018-08-18T06:07:27.962Z,4.10
2018-08-18T06:09:59.598Z,3.80
2018-08-18T06:12:31.478Z,5.30
2018-08-18T06:15:04.326Z,3.80
2018-08-18T06:17:36.110Z,3.60
2018-08-18T06:20:09.202Z,4.07
2018-08-18T06:22:41.662Z,3.10
2018-08-18T06:25:13.646Z,4.67
2018-08-18T06:27:46.350Z,4.80
2018-08-18T06:30:18.794Z,4.10
2018-08-18T06:32:50.558Z,3.03
2018-08-18T06:35:22.510Z,3.60
2018-08-18T06:38:00.837Z,3.30
2018-08-18T06:40:32.682Z,3.40
2018-08-18T06:43:04.465Z,3.37
2018-08-18T06:45:36.248Z,5.10
2018-08-18T06:48:20.264Z,4.50
2018-08-18T06:50:52.054Z,3.40
2018-08-18T06:53:23.681Z,4.73
2018-08-18T06:55:55.837Z,4.97
2018-08-18T06:58:27.684Z,4.50
2018-08-18T07:00:59.712Z,4.00
2018-08-18T07:03:38.851Z,3.70
2018-08-18T07:06:12.489Z,3.73
2018-08-18T07:08:49.392Z,3.03
2018-08-18T07:11:21.336Z,3.17
2018-08-18T07:13:53.197Z,4.97
2018-08-18T07:16:24.877Z,3.93
2018-08-18T07:18:56.648Z,5.30
2018-08-18T07:21:28.475Z,5.33
2018-08-18T07:24:00.133Z,4.60
2018-08-18T07:26:31.857Z,5.77
2018-08-18T07:29:03.954Z,6.43
2018-08-18T07:31:35.649Z,5.17
2018-08-18T07:34:07.419Z,5.20
2018-08-18T07:36:39.125Z,6.33
2018-08-18T07:39:10.847Z,7.13
2018-08-18T07:41:42.760Z,6.10
2018-08-18T07:44:14.505Z,5.23
2018-08-18T07:46:46.257Z,6.07
2018-08-18T07:49:18.131Z,4.53
2018-08-18T07:51:50.013Z,4.90
2018-08-18T07:54:21.746Z,4.80
2018-08-18T07:56:53.766Z,5.00
2018-08-18T07:59:25.385Z,6.33
2018-08-18T08:01:57.041Z,5.70
2018-08-18T08:04:28.936Z,5.37
2018-08-18T08:07:00.653Z,4.20
2018-08-18T08:09:32.321Z,6.10
2018-08-18T08:12:04.290Z,7.03
2018-08-18T08:14:36.145Z,5.63
2018-08-18T08:17:07.893Z,5.37
2018-08-18T08:19:39.672Z,4.47
2018-08-18T08:22:13.166Z,5.47
2018-08-18T08:24:45.117Z,5.77
2018-08-18T08:27:16.979Z,4.63
2018-08-18T08:29:48.969Z,4.17
2018-08-18T08:32:20.718Z,3.90
2018-08-18T08:34:52.977Z,4.73
2018-08-18T08:37:24.741Z,3.73
2018-08-18T08:39:56.575Z,3.20
2018-08-18T08:42:28.964Z,3.67
2018-08-18T08:45:00.970Z,4.27
2018-08-18T08:47:32.718Z,4.23
2018-08-18T08:50:05.945Z,5.13
2018-08-18T08:52:42.733Z,4.10
2018-08-18T08:55:14.435Z,4.27
2018-08-18T08:57:46.194Z,4.20
2018-08-18T09:00:18.036Z,5.40
2018-08-18T09:02:49.811Z,3.83
2018-08-18T09:05:21.809Z,5.17
2018-08-18T09:07:53.604Z,4.93
2018-08-18T09:10:25.399Z,3.70
2018-08-18T09:12:57.281Z,5.10
2018-08-18T09:15:29.189Z,4.10
2018-08-18T09:18:01.158Z,5.03
2018-08-18T09:20:36.960Z,4.00
2018-08-18T09:23:08.776Z,3.60
2018-08-18T09:25:40.490Z,4.37
2018-08-18T09:28:12.213Z,4.70
2018-08-18T09:30:44.002Z,4.43
2018-08-18T09:33:15.812Z,4.83
2018-08-18T09:36:01.944Z,4.33
2018-08-18T09:38:33.829Z,4.20
2018-08-18T09:41:05.630Z,4.30
2018-08-18T09:43:37.496Z,4.20
2018-08-18T09:46:09.169Z,3.70
2018-08-18T09:48:41.031Z,2.53
2018-08-18T09:51:12.630Z,4.83
2018-08-18T09:53:44.544Z,4.03
2018-08-18T09:56:16.242Z,3.53
2018-08-18T09:58:48.090Z,2.60
2018-08-18T10:01:19.791Z,3.40
2018-08-18T10:03:51.652Z,2.93
2018-08-18T10:06:23.341Z,4.40
2018-08-18T10:08:55.109Z,3.30
2018-08-18T10:11:26.860Z,4.07
2018-08-18T10:13:58.621Z,3.70
2018-08-18T10:16:30.589Z,3.77
2018-08-18T10:19:02.440Z,3.77
2018-08-18T10:21:34.373Z,3.90
2018-08-18T10:24:06.161Z,3.73
2018-08-18T10:26:37.830Z,3.83
2018-08-18T10:29:29.624Z,2.93
2018-08-18T10:32:01.413Z,2.77
2018-08-18T10:34:34.201Z,2.10
2018-08-18T10:37:06.833Z,2.80
2018-08-18T10:39:39.405Z,3.50
2018-08-18T10:42:29.872Z,3.23
2018-08-18T10:45:04.437Z,2.40
2018-08-18T10:47:36.132Z,4.13
2018-08-18T10:50:30.852Z,3.30
2018-08-18T10:53:02.610Z,2.70
2018-08-18T10:55:34.449Z,2.20
2018-08-18T10:58:08.278Z,3.40
2018-08-18T11:00:40.293Z,2.53
2018-08-18T11:03:12.152Z,2.90
2018-08-18T11:05:43.966Z,2.57
2018-08-18T11:08:15.801Z,2.50
2018-08-18T11:10:47.467Z,1.90
2018-08-18T11:13:19.314Z,1.90
2018-08-18T11:15:51.160Z,3.00
2018-08-18T11:18:23.026Z,2.50
2018-08-18T11:20:54.701Z,2.20
2018-08-18T11:23:26.537Z,2.90
2018-08-18T11:25:58.718Z,2.47
2018-08-18T11:28:30.591Z,2.30
2018-08-18T11:31:02.254Z,2.70
2018-08-18T11:33:43.523Z,2.43
2018-08-18T11:36:15.363Z,2.50
2018-08-18T11:38:47.067Z,3.00
2018-08-18T11:41:18.777Z,2.10
2018-08-18T11:43:51.562Z,2.13
2018-08-18T11:46:23.425Z,3.00
2018-08-18T11:48:55.127Z,2.40
2018-08-18T11:51:30.988Z,3.10
2018-08-18T11:54:03.133Z,2.70
2018-08-18T11:56:40.852Z,2.37
2018-08-18T11:59:16.729Z,2.40
2018-08-18T12:01:51.452Z,2.27
2018-08-18T12:04:24.136Z,2.60
2018-08-18T12:06:59.869Z,2.00
2018-08-18T12:09:31.573Z,2.10
2018-08-18T12:12:03.269Z,2.93
2018-08-18T12:14:35.180Z,1.63
2018-08-18T12:17:08.050Z,2.77
2018-08-18T12:19:39.923Z,2.57
2018-08-18T12:22:11.914Z,2.30
2018-08-18T12:24:48.070Z,2.43
2018-08-18T12:27:19.859Z,2.50
2018-08-18T12:29:51.765Z,2.10
2018-08-18T12:32:26.980Z,2.10
2018-08-18T12:34:59.259Z,2.83
2018-08-18T12:37:31.009Z,2.40
2018-08-18T12:40:02.753Z,2.00
2018-08-18T12:42:34.573Z,2.13
2018-08-18T12:45:06.533Z,2.70
2018-08-18T12:47:42.859Z,2.80
2018-08-18T12:50:14.792Z,3.20
2018-08-18T12:52:50.645Z,2.40
2018-08-18T12:55:22.517Z,2.80
2018-08-18T12:57:54.257Z,2.10
2018-08-18T13:00:26.105Z,3.03
2018-08-18T13:02:57.793Z,2.73
2018-08-18T13:05:29.517Z,2.87
2018-08-18T13:08:01.334Z,2.50
2018-08-18T13:10:33.060Z,2.60
2018-08-18T13:13:04.804Z,2.10
2018-08-18T13:15:36.593Z,2.00
2018-08-18T13:18:08.446Z,2.33
2018-08-18T13:20:40.216Z,2.20
2018-08-18T13:23:12.138Z,2.10
2018-08-18T13:25:43.829Z,1.90
2018-08-18T13:28:15.581Z,2.90
2018-08-18T13:30:47.423Z,1.70
2018-08-18T13:33:19.323Z,2.57
2018-08-18T13:35:52.702Z,2.37
2018-08-18T13:38:32.641Z,2.13
2018-08-18T13:41:04.521Z,1.70
2018-08-18T13:43:46.070Z,2.60
2018-08-18T13:46:19.455Z,3.10
2018-08-18T13:48:56.168Z,2.20
2018-08-18T13:51:27.830Z,2.23
2018-08-18T13:54:02.030Z,1.70
2018-08-18T13:56:34.204Z,3.03
2018-08-18T13:59:06.085Z,2.50
2018-08-18T14:01:41.715Z,2.80
2018-08-18T14:04:21.645Z,2.90
2018-08-18T14:06:55.469Z,2.20
2018-08-18T14:09:27.251Z,1.77
2018-08-18T14:12:04.236Z,1.83
2018-08-18T14:14:35.993Z,1.80
2018-08-18T14:17:07.935Z,2.23
2018-08-18T14:19:39.699Z,1.90
2018-08-18T14:22:12.049Z,2.00
2018-08-18T14:24:43.866Z,1.67
2018-08-18T14:27:18.325Z,1.60
2018-08-18T14:29:50.226Z,1.90
2018-08-18T14:32:29.179Z,2.20
2018-08-18T14:35:06.263Z,2.70
2018-08-18T14:37:40.521Z,2.70
2018-08-18T14:40:18.318Z,1.70
2018-08-18T14:42:51.098Z,2.10
2018-08-18T14:45:24.369Z,2.97
2018-08-18T14:47:56.221Z,3.00
2018-08-18T14:50:31.489Z,2.93
2018-08-18T14:53:10.796Z,3.00
2018-08-18T14:55:42.510Z,3.33
2018-08-18T14:58:14.321Z,3.00
2018-08-18T15:00:46.057Z,3.53
2018-08-18T15:03:17.742Z,3.30
2018-08-18T15:05:49.457Z,2.93
2018-08-18T15:08:21.116Z,3.30
2018-08-18T15:10:52.852Z,3.20
2018-08-18T15:13:24.535Z,3.53
2018-08-18T15:15:56.455Z,2.60
2018-08-18T15:18:28.236Z,3.20
2018-08-18T15:20:59.966Z,2.13
2018-08-18T15:23:31.814Z,2.30
2018-08-18T15:26:03.715Z,3.43
2018-08-18T15:28:35.625Z,2.43
2018-08-18T15:31:07.292Z,3.53
2018-08-18T15:33:39.205Z,3.30
2018-08-18T15:36:26.980Z,3.07
2018-08-18T15:38:58.794Z,2.77
2018-08-18T15:41:30.569Z,3.70
2018-08-18T15:44:02.183Z,3.10
2018-08-18T15:46:33.964Z,2.93
2018-08-18T15:49:05.569Z,2.97
2018-08-18T15:51:37.279Z,2.93
2018-08-18T15:54:08.975Z,3.37
2018-08-18T15:56:40.943Z,3.67
2018-08-18T15:59:13.693Z,3.00
2018-08-18T16:01:45.357Z,3.33
2018-08-18T16:04:17.145Z,3.47
2018-08-18T16:06:48.902Z,3.23
2018-08-18T16:09:20.613Z,3.37
2018-08-18T16:11:52.472Z,3.27
2018-08-18T16:14:24.283Z,2.43
2018-08-18T16:17:02.349Z,2.60
2018-08-18T16:19:36.285Z,1.97
2018-08-18T16:22:09.043Z,2.90
2018-08-18T16:24:46.709Z,2.70
2018-08-18T16:27:18.689Z,3.17
2018-08-18T16:29:51.505Z,2.37
2018-08-18T16:32:27.082Z,3.13
2018-08-18T16:35:03.854Z,3.50
2018-08-18T16:37:38.365Z,3.47
2018-08-18T16:40:10.105Z,3.23
2018-08-18T16:42:41.775Z,2.70
2018-08-18T16:45:13.609Z,3.50
2018-08-18T16:47:52.177Z,2.90
2018-08-18T16:50:23.798Z,3.17
2018-08-18T16:52:55.550Z,3.40
2018-08-18T16:55:27.289Z,3.77
2018-08-18T16:57:59.173Z,2.67
2018-08-18T17:00:31.319Z,2.87
2018-08-18T17:03:03.190Z,2.37
2018-08-18T17:05:34.865Z,2.97
2018-08-18T17:08:06.638Z,3.37
2018-08-18T17:10:38.356Z,3.63
2018-08-18T17:13:10.152Z,2.57
2018-08-18T17:15:41.808Z,2.50
2018-08-18T17:18:13.865Z,2.83
2018-08-18T17:20:50.699Z,2.97
2018-08-18T17:23:22.605Z,3.00
2018-08-18T17:25:54.366Z,3.30
2018-08-18T17:28:26.289Z,3.10
2018-08-18T17:30:58.194Z,3.00
2018-08-18T17:33:29.950Z,2.97
2018-08-18T17:36:01.739Z,3.43
2018-08-18T17:38:33.650Z,3.00
2018-08-18T17:41:05.517Z,2.87
2018-08-18T17:43:37.289Z,3.17
2018-08-18T17:46:09.154Z,2.60
2018-08-18T17:48:45.997Z,2.60
2018-08-18T17:51:17.976Z,2.57
2018-08-18T17:53:55.315Z,2.17
2018-08-18T17:56:27.124Z,3.00
2018-08-18T17:58:59.054Z,3.30
2018-08-18T18:01:30.760Z,2.83
2018-08-18T18:04:02.529Z,2.50
2018-08-18T18:06:34.299Z,2.20
2018-08-18T18:09:06.306Z,2.20
2018-08-18T18:11:38.238Z,2.27
2018-08-18T18:14:10.061Z,2.63
2018-08-18T18:16:41.838Z,1.93
2018-08-18T18:19:13.664Z,2.47
2018-08-18T18:21:45.950Z,2.13
2018-08-18T18:24:50.968Z,2.30
2018-08-18T18:27:22.942Z,2.70
2018-08-18T18:29:54.731Z,2.90
2018-08-18T18:32:26.276Z,2.53
2018-08-18T18:34:58.174Z,2.90
2018-08-18T18:37:29.901Z,2.80
2018-08-18T18:40:04.346Z,2.93
2018-08-18T18:42:36.065Z,3.33
2018-08-18T18:45:09.695Z,3.53
2018-08-18T18:47:43.722Z,3.17
2018-08-18T18:50:19.325Z,2.97
2018-08-18T18:52:51.770Z,3.40
2018-08-18T18:55:24.657Z,3.13
2018-08-18T18:58:19.273Z,3.07
2018-08-18T19:00:56.001Z,2.60
2018-08-18T19:03:27.625Z,2.93
2018-08-18T19:05:59.482Z,2.60
2018-08-18T19:08:31.957Z,3.40
2018-08-18T19:11:05.494Z,2.63
2018-08-18T19:13:37.354Z,2.70
2018-08-18T19:16:09.108Z,3.03
2018-08-18T19:18:40.876Z,3.30
2018-08-18T19:21:12.733Z,3.00
2018-08-18T19:23:44.441Z,3.03
2018-08-18T19:26:16.230Z,3.17
2018-08-18T19:28:47.985Z,2.77
2018-08-18T19:31:24.070Z,3.33
2018-08-18T19:34:10.883Z,3.10
2018-08-18T19:36:57.467Z,3.37
2018-08-18T19:39:30.307Z,3.70
2018-08-18T19:42:08.128Z,3.13
2018-08-18T19:44:43.839Z,4.60
2018-08-18T19:47:21.250Z,3.67
2018-08-18T19:49:53.077Z,4.17
2018-08-18T19:52:25.351Z,3.60
2018-08-18T19:54:56.963Z,3.47
2018-08-18T19:57:33.674Z,3.20
2018-08-18T20:00:16.094Z,3.67
2018-08-18T20:03:01.742Z,3.60
2018-08-18T20:05:33.408Z,4.20
2018-08-18T20:08:05.163Z,3.87
2018-08-18T20:10:45.701Z,3.00
2018-08-18T20:13:18.343Z,3.43
2018-08-18T20:15:51.334Z,4.10
2018-08-18T20:18:23.285Z,2.87
2018-08-18T20:20:56.991Z,3.17
2018-08-18T20:23:28.717Z,3.13
2018-08-18T20:26:01.645Z,3.67
2018-08-18T20:28:33.473Z,4.20
2018-08-18T20:31:05.231Z,4.37
2018-08-18T20:33:37.065Z,4.13
2018-08-18T20:36:08.685Z,3.50
2018-08-18T20:38:46.612Z,3.17
2018-08-18T20:41:18.581Z,4.13
2018-08-18T20:43:50.349Z,4.40
2018-08-18T20:46:22.257Z,3.77
2018-08-18T20:48:54.133Z,3.43
2018-08-18T20:51:30.923Z,3.93
2018-08-18T20:54:03.576Z,3.60
2018-08-18T20:56:35.210Z,3.10
2018-08-18T20:59:07.134Z,3.50
2018-08-18T21:01:38.938Z,3.20
2018-08-18T21:04:10.685Z,4.17
2018-08-18T21:06:42.429Z,3.50
2018-08-18T21:09:29.907Z,3.30
2018-08-18T21:12:01.631Z,3.47
2018-08-18T21:14:33.384Z,3.70
2018-08-18T21:17:05.325Z,3.07
2018-08-18T21:19:38.776Z,3.33
2018-08-18T21:22:13.508Z,3.23
2018-08-18T21:24:45.218Z,3.33
2018-08-18T21:27:17.181Z,3.10
2018-08-18T21:29:49.069Z,3.87
2018-08-18T21:32:21.531Z,3.37
2018-08-18T21:34:53.470Z,4.23
2018-08-18T21:37:25.301Z,2.90
2018-08-18T21:39:57.001Z,4.23
2018-08-18T21:42:28.786Z,4.53
2018-08-18T21:45:00.617Z,4.00
2018-08-18T21:47:32.295Z,4.33
2018-08-18T21:50:04.162Z,3.93
2018-08-18T21:52:35.938Z,4.43
2018-08-18T21:55:07.762Z,4.63
2018-08-18T21:57:54.815Z,4.10
2018-08-18T22:00:31.624Z,3.90
2018-08-18T22:03:03.649Z,3.40
2018-08-18T22:05:35.580Z,4.47
2018-08-18T22:08:07.440Z,5.10
2018-08-18T22:10:43.346Z,5.07
2018-08-18T22:13:14.987Z,4.90
2018-08-18T22:15:46.646Z,4.13
2018-08-18T22:18:18.621Z,3.67
2018-08-18T22:20:50.362Z,4.87
2018-08-18T22:23:22.122Z,4.43
2018-08-18T22:25:54.063Z,3.50
2018-08-18T22:28:26.072Z,4.60
2018-08-18T22:30:57.793Z,4.17
2018-08-18T22:33:33.783Z,4.77
2018-08-18T22:36:05.521Z,4.67
2018-08-18T22:38:37.465Z,4.97
2018-08-18T22:41:09.566Z,3.63
2018-08-18T22:43:41.501Z,3.83
2018-08-18T22:46:13.354Z,3.50
2018-08-18T22:48:45.148Z,5.47
2018-08-18T22:51:16.787Z,4.90
2018-08-18T22:53:50.802Z,4.50
2018-08-18T22:56:22.678Z,3.73
2018-08-18T22:58:59.490Z,3.97
2018-08-18T23:01:31.691Z,4.47
2018-08-18T23:04:04.460Z,4.80
2018-08-18T23:06:37.245Z,4.90
2018-08-18T23:09:09.241Z,4.73
2018-08-18T23:11:41.068Z,3.97
2018-08-18T23:14:12.932Z,3.70
2018-08-18T23:16:44.600Z,4.70
2018-08-18T23:19:16.453Z,5.53
2018-08-18T23:21:48.224Z,5.23
2018-08-18T23:24:31.957Z,4.20
2018-08-18T23:27:04.162Z,4.50
2018-08-18T23:29:35.801Z,4.90
2018-08-18T23:32:27.347Z,5.47
2018-08-18T23:34:59.370Z,3.87
2018-08-18T23:37:31.231Z,4.33
2018-08-18T23:40:02.973Z,4.20
2018-08-18T23:42:34.741Z,4.00
2018-08-18T23:45:06.709Z,4.43
2018-08-18T23:47:38.374Z,5.97
2018-08-18T23:50:10.334Z,6.07
2018-08-18T23:53:03.793Z,5.13
2018-08-18T23:55:35.713Z,6.07
2018-08-18T23:58:07.437Z,5.60
